sensor_id;sensor_type;location;lat;lon;timestamp;pressure;altitude;pressure_sealevel;temperature;humidity
54146;BME280;40052;49.422;7.738;2022-07-29T00:01:17;73435.28;;;-145.25;48.69
54146;BME280;40052;49.422;7.738;2022-07-29T00:03:45;73429.28;;;-145.25;48.23
54146;BME280;40052;49.422;7.738;2022-07-29T00:06:13;73421.28;;;-145.25;47.97
54146;BME280;40052;49.422;7.738;2022-07-29T00:08:39;73419.25;;;-145.25;47.95
54146;BME280;40052;49.422;7.738;2022-07-29T00:11:07;73427.28;;;-145.25;48.34
54146;BME280;40052;49.422;7.738;2022-07-29T00:13:32;73433.28;;;-145.25;48.55
54146;BME280;40052;49.422;7.738;2022-07-29T00:15:57;73431.28;;;-145.25;48.59
54146;BME280;40052;49.422;7.738;2022-07-29T00:18:23;73439.28;;;-145.25;48.85
54146;BME280;40052;49.422;7.738;2022-07-29T00:20:51;73437.28;;;-145.25;48.91
54146;BME280;40052;49.422;7.738;2022-07-29T00:23:16;73439.28;;;-145.25;49.07
54146;BME280;40052;49.422;7.738;2022-07-29T00:25:41;73459.34;;;-145.25;49.44
54146;BME280;40052;49.422;7.738;2022-07-29T00:28:07;73455.31;;;-145.25;49.50
54146;BME280;40052;49.422;7.738;2022-07-29T00:30:32;73441.31;;;-145.25;49.29
54146;BME280;40052;49.422;7.738;2022-07-29T00:32:58;73435.28;;;-145.25;49.13
54146;BME280;40052;49.422;7.738;2022-07-29T00:35:25;73443.31;;;-145.25;49.48
54146;BME280;40052;49.422;7.738;2022-07-29T00:38:16;73455.31;;;-145.25;49.76
54146;BME280;40052;49.422;7.738;2022-07-29T00:40:42;73455.31;;;-145.25;49.85
54146;BME280;40052;49.422;7.738;2022-07-29T00:43:08;73461.34;;;-145.25;49.92
54146;BME280;40052;49.422;7.738;2022-07-29T00:45:34;73467.34;;;-145.25;50.07
54146;BME280;40052;49.422;7.738;2022-07-29T00:48:02;73495.38;;;-145.25;50.52
54146;BME280;40052;49.422;7.738;2022-07-29T00:50:30;73501.41;;;-145.25;50.80
54146;BME280;40052;49.422;7.738;2022-07-29T00:52:56;73501.41;;;-145.25;50.94
54146;BME280;40052;49.422;7.738;2022-07-29T00:55:21;73501.41;;;-145.25;50.37
54146;BME280;40052;49.422;7.738;2022-07-29T00:57:47;73533.47;;;-145.25;50.93
54146;BME280;40052;49.422;7.738;2022-07-29T01:00:16;73537.47;;;-145.25;51.36
54146;BME280;40052;49.422;7.738;2022-07-29T01:02:45;73535.47;;;-145.25;51.09
54146;BME280;40052;49.422;7.738;2022-07-29T01:05:13;73549.47;;;-145.25;51.42
54146;BME280;40052;49.422;7.738;2022-07-29T01:07:42;73565.50;;;-145.25;51.63
54146;BME280;40052;49.422;7.738;2022-07-29T01:10:09;73565.50;;;-145.25;51.56
54146;BME280;40052;49.422;7.738;2022-07-29T01:12:37;73559.50;;;-145.25;51.25
54146;BME280;40052;49.422;7.738;2022-07-29T01:15:04;73555.50;;;-145.25;50.77
54146;BME280;40052;49.422;7.738;2022-07-29T01:20:30;73527.44;;;-145.25;49.64
54146;BME280;40052;49.422;7.738;2022-07-29T01:31:17;73507.41;;;-145.25;49.37
54146;BME280;40052;49.422;7.738;2022-07-29T01:33:47;73521.44;;;-145.25;49.81
54146;BME280;40052;49.422;7.738;2022-07-29T01:42:05;73567.50;;;-145.25;50.25
54146;BME280;40052;49.422;7.738;2022-07-29T01:44:39;73581.53;;;-145.25;50.64
54146;BME280;40052;49.422;7.738;2022-07-29T01:47:15;73599.56;;;-145.25;51.31
54146;BME280;40052;49.422;7.738;2022-07-29T01:49:50;73611.59;;;-145.25;51.22
54146;BME280;40052;49.422;7.738;2022-07-29T01:52:25;73619.59;;;-145.25;51.56
54146;BME280;40052;49.422;7.738;2022-07-29T01:54:55;73639.63;;;-145.25;52.01
54146;BME280;40052;49.422;7.738;2022-07-29T01:57:29;73657.66;;;-145.25;52.83
54146;BME280;40052;49.422;7.738;2022-07-29T02:00:03;73653.66;;;-145.25;52.85
54146;BME280;40052;49.422;7.738;2022-07-29T02:02:32;73677.69;;;-145.25;53.19
54146;BME280;40052;49.422;7.738;2022-07-29T02:05:00;73669.69;;;-145.25;53.27
54146;BME280;40052;49.422;7.738;2022-07-29T02:07:30;73661.69;;;-145.25;52.98
54146;BME280;40052;49.422;7.738;2022-07-29T02:09:58;73661.69;;;-145.25;52.85
54146;BME280;40052;49.422;7.738;2022-07-29T02:12:25;73659.66;;;-145.25;52.79
54146;BME280;40052;49.422;7.738;2022-07-29T02:14:54;73651.66;;;-145.25;52.79
54146;BME280;40052;49.422;7.738;2022-07-29T02:17:29;73691.72;;;-145.25;54.26
54146;BME280;40052;49.422;7.738;2022-07-29T02:20:00;73709.75;;;-145.25;54.64
54146;BME280;40052;49.422;7.738;2022-07-29T02:22:29;73695.72;;;-145.25;54.32
54146;BME280;40052;49.422;7.738;2022-07-29T02:24:58;73715.78;;;-145.25;54.50
54146;BME280;40052;49.422;7.738;2022-07-29T02:27:25;73717.78;;;-145.25;54.03
54146;BME280;40052;49.422;7.738;2022-07-29T02:29:52;73707.75;;;-145.25;53.94
54146;BME280;40052;49.422;7.738;2022-07-29T02:32:21;73707.75;;;-145.25;53.93
54146;BME280;40052;49.422;7.738;2022-07-29T02:34:48;73707.75;;;-145.25;53.94
54146;BME280;40052;49.422;7.738;2022-07-29T02:37:16;73689.72;;;-145.25;53.88
54146;BME280;40052;49.422;7.738;2022-07-29T02:39:43;73671.69;;;-145.25;53.21
54146;BME280;40052;49.422;7.738;2022-07-29T02:42:12;73677.69;;;-145.25;53.41
54146;BME280;40052;49.422;7.738;2022-07-29T02:44:38;73665.69;;;-145.25;53.11
54146;BME280;40052;49.422;7.738;2022-07-29T02:52:47;73651.66;;;-145.25;52.96
54146;BME280;40052;49.422;7.738;2022-07-29T02:55:29;73667.69;;;-145.25;53.08
54146;BME280;40052;49.422;7.738;2022-07-29T02:58:14;73669.69;;;-145.25;53.34
54146;BME280;40052;49.422;7.738;2022-07-29T03:00:41;73685.72;;;-145.25;53.65
54146;BME280;40052;49.422;7.738;2022-07-29T03:03:11;73699.75;;;-145.25;54.64
54146;BME280;40052;49.422;7.738;2022-07-29T03:05:37;73715.78;;;-145.25;56.46
54146;BME280;40052;49.422;7.738;2022-07-29T03:08:06;73731.78;;;-145.25;56.49
54146;BME280;40052;49.422;7.738;2022-07-29T03:10:34;73739.81;;;-145.25;56.73
54146;BME280;40052;49.422;7.738;2022-07-29T03:13:00;73751.84;;;-145.25;57.87
54146;BME280;40052;49.422;7.738;2022-07-29T03:15:26;73763.84;;;-145.25;58.52
54146;BME280;40052;49.422;7.738;2022-07-29T03:17:52;73761.84;;;-145.25;59.14
54146;BME280;40052;49.422;7.738;2022-07-29T03:20:23;73761.84;;;-145.25;59.16
54146;BME280;40052;49.422;7.738;2022-07-29T03:22:49;73763.84;;;-145.25;59.29
54146;BME280;40052;49.422;7.738;2022-07-29T03:25:18;73761.84;;;-145.25;59.75
54146;BME280;40052;49.422;7.738;2022-07-29T03:27:45;73757.84;;;-145.25;60.03
54146;BME280;40052;49.422;7.738;2022-07-29T03:30:12;73757.84;;;-145.25;59.83
54146;BME280;40052;49.422;7.738;2022-07-29T03:32:38;73743.81;;;-145.25;59.91
54146;BME280;40052;49.422;7.738;2022-07-29T03:35:07;73749.81;;;-145.25;59.91
54146;BME280;40052;49.422;7.738;2022-07-29T03:37:32;73745.81;;;-145.25;59.69
54146;BME280;40052;49.422;7.738;2022-07-29T03:40:05;73747.81;;;-145.25;60.06
54146;BME280;40052;49.422;7.738;2022-07-29T03:42:33;73763.84;;;-145.25;60.64
54146;BME280;40052;49.422;7.738;2022-07-29T03:45:05;73773.88;;;-145.25;60.95
54146;BME280;40052;49.422;7.738;2022-07-29T03:47:33;73787.91;;;-145.25;61.25
54146;BME280;40052;49.422;7.738;2022-07-29T03:50:04;73789.91;;;-145.25;61.30
54146;BME280;40052;49.422;7.738;2022-07-29T03:52:33;73787.91;;;-145.25;61.14
54146;BME280;40052;49.422;7.738;2022-07-29T03:54:59;73783.88;;;-145.25;60.82
54146;BME280;40052;49.422;7.738;2022-07-29T03:57:34;73793.91;;;-145.25;61.03
54146;BME280;40052;49.422;7.738;2022-07-29T04:00:00;73785.88;;;-145.25;61.38
54146;BME280;40052;49.422;7.738;2022-07-29T04:02:26;73785.88;;;-145.25;60.47
54146;BME280;40052;49.422;7.738;2022-07-29T04:04:52;73787.91;;;-145.25;59.92
54146;BME280;40052;49.422;7.738;2022-07-29T04:07:17;73781.88;;;-145.25;60.40
54146;BME280;40052;49.422;7.738;2022-07-29T04:09:43;73787.91;;;-145.25;59.53
54146;BME280;40052;49.422;7.738;2022-07-29T04:12:13;73783.88;;;-145.25;59.17
54146;BME280;40052;49.422;7.738;2022-07-29T04:14:39;73799.91;;;-145.25;59.65
54146;BME280;40052;49.422;7.738;2022-07-29T04:17:04;73823.97;;;-145.25;60.31
54146;BME280;40052;49.422;7.738;2022-07-29T04:19:30;73844.00;;;-145.25;60.04
54146;BME280;40052;49.422;7.738;2022-07-29T04:21:57;73856.00;;;-145.25;60.18
54146;BME280;40052;49.422;7.738;2022-07-29T04:24:22;73862.03;;;-145.25;60.82
54146;BME280;40052;49.422;7.738;2022-07-29T04:26:48;73880.06;;;-145.25;61.93
54146;BME280;40052;49.422;7.738;2022-07-29T04:29:14;73886.06;;;-145.25;62.57
54146;BME280;40052;49.422;7.738;2022-07-29T04:31:40;73868.03;;;-145.25;62.76
54146;BME280;40052;49.422;7.738;2022-07-29T04:34:06;73829.97;;;-145.25;62.66
54146;BME280;40052;49.422;7.738;2022-07-29T04:36:34;73833.97;;;-145.25;63.20
54146;BME280;40052;49.422;7.738;2022-07-29T04:39:02;73831.97;;;-145.25;63.15
54146;BME280;40052;49.422;7.738;2022-07-29T04:41:32;73846.00;;;-145.25;63.53
54146;BME280;40052;49.422;7.738;2022-07-29T04:43:58;73827.97;;;-145.25;63.05
54146;BME280;40052;49.422;7.738;2022-07-29T04:46:25;73823.97;;;-145.25;62.99
54146;BME280;40052;49.422;7.738;2022-07-29T04:48:53;73827.97;;;-145.25;62.70
54146;BME280;40052;49.422;7.738;2022-07-29T04:51:19;73835.97;;;-145.25;62.13
54146;BME280;40052;49.422;7.738;2022-07-29T04:53:44;73856.00;;;-145.25;62.60
54146;BME280;40052;49.422;7.738;2022-07-29T04:56:12;73870.03;;;-145.25;62.77
54146;BME280;40052;49.422;7.738;2022-07-29T04:58:42;73892.06;;;-145.25;63.03
54146;BME280;40052;49.422;7.738;2022-07-29T05:01:07;73890.06;;;-145.25;62.97
54146;BME280;40052;49.422;7.738;2022-07-29T05:03:35;73872.03;;;-145.25;63.16
54146;BME280;40052;49.422;7.738;2022-07-29T05:06:00;73864.03;;;-145.25;63.08
54146;BME280;40052;49.422;7.738;2022-07-29T05:08:26;73862.03;;;-145.25;63.42
54146;BME280;40052;49.422;7.738;2022-07-29T05:10:51;73870.03;;;-145.25;64.29
54146;BME280;40052;49.422;7.738;2022-07-29T05:13:22;73876.06;;;-145.25;64.63
54146;BME280;40052;49.422;7.738;2022-07-29T05:15:47;73884.06;;;-145.25;64.82
54146;BME280;40052;49.422;7.738;2022-07-29T05:18:13;73884.06;;;-145.25;65.19
54146;BME280;40052;49.422;7.738;2022-07-29T05:20:39;73878.06;;;-145.25;64.97
54146;BME280;40052;49.422;7.738;2022-07-29T05:23:09;73868.03;;;-145.25;64.71
54146;BME280;40052;49.422;7.738;2022-07-29T05:25:40;73858.03;;;-145.25;65.07
54146;BME280;40052;49.422;7.738;2022-07-29T05:28:05;73862.03;;;-145.25;65.23
54146;BME280;40052;49.422;7.738;2022-07-29T05:30:31;73852.00;;;-145.25;65.19
54146;BME280;40052;49.422;7.738;2022-07-29T05:32:56;73842.00;;;-145.25;64.95
54146;BME280;40052;49.422;7.738;2022-07-29T05:35:21;73821.97;;;-145.25;64.62
54146;BME280;40052;49.422;7.738;2022-07-29T05:37:47;73803.91;;;-145.25;64.24
54146;BME280;40052;49.422;7.738;2022-07-29T05:40:15;73789.91;;;-145.25;63.82
54146;BME280;40052;49.422;7.738;2022-07-29T05:42:40;73783.88;;;-145.25;63.89
54146;BME280;40052;49.422;7.738;2022-07-29T05:45:06;73783.88;;;-145.25;63.69
54146;BME280;40052;49.422;7.738;2022-07-29T05:47:32;73779.88;;;-145.25;63.80
54146;BME280;40052;49.422;7.738;2022-07-29T05:50:02;73767.84;;;-145.25;63.57
54146;BME280;40052;49.422;7.738;2022-07-29T05:52:30;73761.84;;;-145.25;63.18
54146;BME280;40052;49.422;7.738;2022-07-29T05:54:57;73763.84;;;-145.25;63.50
54146;BME280;40052;49.422;7.738;2022-07-29T05:57:23;73767.84;;;-145.25;63.22
54146;BME280;40052;49.422;7.738;2022-07-29T05:59:50;73783.88;;;-145.25;63.56
54146;BME280;40052;49.422;7.738;2022-07-29T06:02:16;73771.88;;;-145.25;63.03
54146;BME280;40052;49.422;7.738;2022-07-29T06:04:44;73791.91;;;-145.25;63.44
54146;BME280;40052;49.422;7.738;2022-07-29T06:07:14;73795.91;;;-145.25;63.28
54146;BME280;40052;49.422;7.738;2022-07-29T06:09:42;73775.88;;;-145.25;62.54
54146;BME280;40052;49.422;7.738;2022-07-29T06:12:08;73757.84;;;-145.25;62.26
54146;BME280;40052;49.422;7.738;2022-07-29T06:14:36;73765.84;;;-145.25;62.63
54146;BME280;40052;49.422;7.738;2022-07-29T06:17:06;73759.84;;;-145.25;62.25
54146;BME280;40052;49.422;7.738;2022-07-29T06:19:34;73745.81;;;-145.25;62.01
54146;BME280;40052;49.422;7.738;2022-07-29T06:21:59;73739.81;;;-145.25;60.28
54146;BME280;40052;49.422;7.738;2022-07-29T06:24:25;73721.78;;;-145.25;60.71
54146;BME280;40052;49.422;7.738;2022-07-29T06:26:53;73717.78;;;-145.25;60.50
54146;BME280;40052;49.422;7.738;2022-07-29T06:29:18;73713.75;;;-145.25;60.33
54146;BME280;40052;49.422;7.738;2022-07-29T06:31:46;73697.75;;;-145.25;59.58
54146;BME280;40052;49.422;7.738;2022-07-29T06:34:11;73675.69;;;-145.25;58.09
54146;BME280;40052;49.422;7.738;2022-07-29T06:36:39;73691.72;;;-145.25;57.85
54146;BME280;40052;49.422;7.738;2022-07-29T06:39:07;73671.69;;;-145.25;57.64
54146;BME280;40052;49.422;7.738;2022-07-29T06:41:33;73707.75;;;-145.25;57.10
54146;BME280;40052;49.422;7.738;2022-07-29T06:43:59;73687.72;;;-145.25;56.80
54146;BME280;40052;49.422;7.738;2022-07-29T06:46:24;73681.72;;;-145.25;57.23
54146;BME280;40052;49.422;7.738;2022-07-29T06:48:50;73655.66;;;-145.25;56.09
54146;BME280;40052;49.422;7.738;2022-07-29T06:51:16;73637.63;;;-145.25;54.94
54146;BME280;40052;49.422;7.738;2022-07-29T06:53:46;73631.63;;;-145.25;54.80
54146;BME280;40052;49.422;7.738;2022-07-29T06:56:14;73615.59;;;-145.25;54.41
54146;BME280;40052;49.422;7.738;2022-07-29T06:58:40;73615.59;;;-145.25;54.10
54146;BME280;40052;49.422;7.738;2022-07-29T07:01:07;73615.59;;;-145.25;53.59
54146;BME280;40052;49.422;7.738;2022-07-29T07:03:33;73603.56;;;-145.25;53.85
54146;BME280;40052;49.422;7.738;2022-07-29T07:05:59;73591.56;;;-145.25;53.43
54146;BME280;40052;49.422;7.738;2022-07-29T07:08:24;73585.53;;;-145.25;53.07
54146;BME280;40052;49.422;7.738;2022-07-29T07:10:51;73587.56;;;-145.25;53.08
54146;BME280;40052;49.422;7.738;2022-07-29T07:13:17;73583.53;;;-145.25;52.88
54146;BME280;40052;49.422;7.738;2022-07-29T07:15:43;73583.53;;;-145.25;52.73
54146;BME280;40052;49.422;7.738;2022-07-29T07:18:11;73581.53;;;-145.25;52.39
54146;BME280;40052;49.422;7.738;2022-07-29T07:20:39;73565.50;;;-145.25;52.57
54146;BME280;40052;49.422;7.738;2022-07-29T07:23:05;73545.47;;;-145.25;51.36
54146;BME280;40052;49.422;7.738;2022-07-29T07:25:31;73529.44;;;-145.25;49.82
54146;BME280;40052;49.422;7.738;2022-07-29T07:27:56;73519.44;;;-145.25;49.95
54146;BME280;40052;49.422;7.738;2022-07-29T07:30:24;73487.38;;;-145.25;49.56
54146;BME280;40052;49.422;7.738;2022-07-29T07:32:49;73457.31;;;-145.25;49.23
54146;BME280;40052;49.422;7.738;2022-07-29T07:35:15;73441.31;;;-145.25;48.82
54146;BME280;40052;49.422;7.738;2022-07-29T07:37:40;73425.28;;;-145.25;48.71
54146;BME280;40052;49.422;7.738;2022-07-29T07:40:07;73431.28;;;-145.25;48.35
54146;BME280;40052;49.422;7.738;2022-07-29T07:42:33;73415.25;;;-145.25;48.78
54146;BME280;40052;49.422;7.738;2022-07-29T07:44:59;73399.22;;;-145.25;48.91
54146;BME280;40052;49.422;7.738;2022-07-29T07:47:24;73403.25;;;-145.25;48.73
54146;BME280;40052;49.422;7.738;2022-07-29T07:49:50;73403.25;;;-145.25;48.58
54146;BME280;40052;49.422;7.738;2022-07-29T07:52:17;73405.25;;;-145.25;48.39
54146;BME280;40052;49.422;7.738;2022-07-29T07:54:43;73425.28;;;-145.25;48.27
54146;BME280;40052;49.422;7.738;2022-07-29T07:57:10;73425.28;;;-145.25;48.37
54146;BME280;40052;49.422;7.738;2022-07-29T07:59:35;73427.28;;;-145.25;48.90
54146;BME280;40052;49.422;7.738;2022-07-29T08:02:01;73427.28;;;-145.25;49.29
54146;BME280;40052;49.422;7.738;2022-07-29T08:04:28;73417.25;;;-145.25;49.35
54146;BME280;40052;49.422;7.738;2022-07-29T08:06:57;73415.25;;;-145.25;49.58
54146;BME280;40052;49.422;7.738;2022-07-29T08:09:23;73397.22;;;-145.25;49.64
54146;BME280;40052;49.422;7.738;2022-07-29T08:11:55;73407.25;;;-145.25;49.28
54146;BME280;40052;49.422;7.738;2022-07-29T08:14:20;73389.22;;;-145.25;49.83
54146;BME280;40052;49.422;7.738;2022-07-29T08:16:46;73389.22;;;-145.25;49.28
54146;BME280;40052;49.422;7.738;2022-07-29T08:19:14;73373.19;;;-145.25;49.33
54146;BME280;40052;49.422;7.738;2022-07-29T08:21:42;73379.19;;;-145.25;49.62
54146;BME280;40052;49.422;7.738;2022-07-29T08:24:07;73369.19;;;-145.25;49.38
54146;BME280;40052;49.422;7.738;2022-07-29T08:26:51;73355.16;;;-145.25;49.69
54146;BME280;40052;49.422;7.738;2022-07-29T08:29:16;73349.16;;;-145.25;49.37
54146;BME280;40052;49.422;7.738;2022-07-29T08:31:42;73303.06;;;-145.25;48.53
54146;BME280;40052;49.422;7.738;2022-07-29T08:34:11;73281.03;;;-145.25;48.34
54146;BME280;40052;49.422;7.738;2022-07-29T08:36:37;73277.03;;;-145.25;47.77
54146;BME280;40052;49.422;7.738;2022-07-29T08:39:04;73267.00;;;-145.25;47.56
54146;BME280;40052;49.422;7.738;2022-07-29T08:41:29;73242.97;;;-145.25;47.17
54146;BME280;40052;49.422;7.738;2022-07-29T08:43:54;73216.94;;;-145.25;46.77
54146;BME280;40052;49.422;7.738;2022-07-29T08:46:22;73218.94;;;-145.25;46.62
54146;BME280;40052;49.422;7.738;2022-07-29T08:48:50;73182.88;;;-145.25;46.12
54146;BME280;40052;49.422;7.738;2022-07-29T08:51:21;73162.84;;;-145.25;45.60
54146;BME280;40052;49.422;7.738;2022-07-29T08:53:49;73142.81;;;-145.25;45.69
54146;BME280;40052;49.422;7.738;2022-07-29T08:56:18;73144.81;;;-145.25;45.98
54146;BME280;40052;49.422;7.738;2022-07-29T08:58:47;73138.81;;;-145.25;45.88
54146;BME280;40052;49.422;7.738;2022-07-29T09:01:17;73134.81;;;-145.25;46.30
54146;BME280;40052;49.422;7.738;2022-07-29T09:03:45;73122.78;;;-145.25;46.10
54146;BME280;40052;49.422;7.738;2022-07-29T09:06:14;73098.75;;;-145.25;46.21
54146;BME280;40052;49.422;7.738;2022-07-29T09:08:42;73094.72;;;-145.25;45.64
54146;BME280;40052;49.422;7.738;2022-07-29T09:11:07;73116.78;;;-145.25;46.04
54146;BME280;40052;49.422;7.738;2022-07-29T09:13:36;73116.78;;;-145.25;46.48
54146;BME280;40052;49.422;7.738;2022-07-29T09:16:01;73098.75;;;-145.25;45.91
54146;BME280;40052;49.422;7.738;2022-07-29T09:18:35;73054.66;;;-145.25;45.45
54146;BME280;40052;49.422;7.738;2022-07-29T09:21:05;73022.63;;;-145.25;45.37
54146;BME280;40052;49.422;7.738;2022-07-29T09:24:03;73022.63;;;-145.25;44.88
54146;BME280;40052;49.422;7.738;2022-07-29T09:26:36;72974.56;;;-145.25;44.19
54146;BME280;40052;49.422;7.738;2022-07-29T09:29:14;72958.53;;;-145.25;44.31
54146;BME280;40052;49.422;7.738;2022-07-29T09:31:43;72998.59;;;-145.25;44.62
54146;BME280;40052;49.422;7.738;2022-07-29T09:34:12;72972.53;;;-145.25;44.36
54146;BME280;40052;49.422;7.738;2022-07-29T09:36:46;72968.53;;;-145.25;44.14
54146;BME280;40052;49.422;7.738;2022-07-29T09:39:13;72994.56;;;-145.25;43.93
54146;BME280;40052;49.422;7.738;2022-07-29T09:41:49;72980.56;;;-145.25;43.81
54146;BME280;40052;49.422;7.738;2022-07-29T09:44:18;73002.59;;;-145.25;44.01
54146;BME280;40052;49.422;7.738;2022-07-29T09:46:54;72996.59;;;-145.25;44.23
54146;BME280;40052;49.422;7.738;2022-07-29T09:49:20;73006.59;;;-145.25;43.90
54146;BME280;40052;49.422;7.738;2022-07-29T09:51:45;72998.59;;;-145.25;44.32
54146;BME280;40052;49.422;7.738;2022-07-29T09:54:23;72972.53;;;-145.25;43.80
54146;BME280;40052;49.422;7.738;2022-07-29T09:56:49;72958.53;;;-145.25;43.22
54146;BME280;40052;49.422;7.738;2022-07-29T09:59:17;72992.56;;;-145.25;43.28
54146;BME280;40052;49.422;7.738;2022-07-29T10:01:45;72952.50;;;-145.25;42.84
54146;BME280;40052;49.422;7.738;2022-07-29T10:04:11;72956.53;;;-145.25;42.08
54146;BME280;40052;49.422;7.738;2022-07-29T10:06:58;72960.53;;;-145.25;42.42
54146;BME280;40052;49.422;7.738;2022-07-29T10:09:25;72998.59;;;-145.25;42.02
54146;BME280;40052;49.422;7.738;2022-07-29T10:12:23;73034.63;;;-145.25;42.55
54146;BME280;40052;49.422;7.738;2022-07-29T10:14:49;73042.66;;;-145.25;42.92
54146;BME280;40052;49.422;7.738;2022-07-29T10:17:18;73030.63;;;-145.25;43.41
54146;BME280;40052;49.422;7.738;2022-07-29T10:19:46;73026.63;;;-145.25;43.28
54146;BME280;40052;49.422;7.738;2022-07-29T10:22:14;72994.56;;;-145.25;43.03
54146;BME280;40052;49.422;7.738;2022-07-29T10:24:41;72984.56;;;-145.25;42.53
54146;BME280;40052;49.422;7.738;2022-07-29T10:27:08;72990.56;;;-145.25;42.44
54146;BME280;40052;49.422;7.738;2022-07-29T10:29:33;72976.56;;;-145.25;42.63
54146;BME280;40052;49.422;7.738;2022-07-29T10:40:28;72916.47;;;-145.25;42.24
54146;BME280;40052;49.422;7.738;2022-07-29T10:43:29;72910.44;;;-145.25;41.67
54146;BME280;40052;49.422;7.738;2022-07-29T10:45:59;72868.38;;;-145.25;41.08
54146;BME280;40052;49.422;7.738;2022-07-29T10:48:27;72848.34;;;-145.25;39.92
54146;BME280;40052;49.422;7.738;2022-07-29T10:53:18;72812.31;;;-145.25;39.62
54146;BME280;40052;49.422;7.738;2022-07-29T10:55:44;72788.25;;;-145.25;39.39
54146;BME280;40052;49.422;7.738;2022-07-29T11:00:40;72762.22;;;-145.25;38.80
54146;BME280;40052;49.422;7.738;2022-07-29T11:03:08;72754.22;;;-145.25;37.55
54146;BME280;40052;49.422;7.738;2022-07-29T11:05:52;72716.16;;;-145.25;37.27
54146;BME280;40052;49.422;7.738;2022-07-29T11:08:20;72706.13;;;-145.25;37.09
54146;BME280;40052;49.422;7.738;2022-07-29T11:10:49;72664.06;;;-145.25;36.53
54146;BME280;40052;49.422;7.738;2022-07-29T11:16:08;72698.13;;;-145.25;37.21
54146;BME280;40052;49.422;7.738;2022-07-29T11:18:33;72654.06;;;-145.25;36.87
54146;BME280;40052;49.422;7.738;2022-07-29T11:20:59;72624.03;;;-145.25;36.52
54146;BME280;40052;49.422;7.738;2022-07-29T11:23:31;72599.97;;;-145.25;36.11
54146;BME280;40052;49.422;7.738;2022-07-29T11:28:38;72595.97;;;-145.25;35.78
54146;BME280;40052;49.422;7.738;2022-07-29T11:31:07;72545.91;;;-145.25;35.23
54146;BME280;40052;49.422;7.738;2022-07-29T11:33:36;72533.88;;;-145.25;34.74
54146;BME280;40052;49.422;7.738;2022-07-29T11:38:39;72477.81;;;-145.25;34.41
54146;BME280;40052;49.422;7.738;2022-07-29T11:41:24;72459.78;;;-145.25;33.78
54146;BME280;40052;49.422;7.738;2022-07-29T11:44:02;72389.69;;;-145.25;33.63
54146;BME280;40052;49.422;7.738;2022-07-29T11:46:51;72363.66;;;-145.25;32.25
54146;BME280;40052;49.422;7.738;2022-07-29T11:49:21;72459.78;;;-145.25;32.98
54146;BME280;40052;49.422;7.738;2022-07-29T11:51:56;72413.72;;;-145.25;32.87
54146;BME280;40052;49.422;7.738;2022-07-29T11:54:30;72385.69;;;-145.25;32.34
54146;BME280;40052;49.422;7.738;2022-07-29T11:56:58;72455.78;;;-145.25;32.75
54146;BME280;40052;49.422;7.738;2022-07-29T11:59:24;72503.84;;;-145.25;33.28
54146;BME280;40052;49.422;7.738;2022-07-29T12:01:56;72475.81;;;-145.25;33.34
54146;BME280;40052;49.422;7.738;2022-07-29T12:04:23;72397.69;;;-145.25;32.52
54146;BME280;40052;49.422;7.738;2022-07-29T12:06:54;72363.66;;;-145.25;32.30
54146;BME280;40052;49.422;7.738;2022-07-29T12:09:21;72397.69;;;-145.25;32.20
54146;BME280;40052;49.422;7.738;2022-07-29T12:11:56;72401.69;;;-145.25;32.47
54146;BME280;40052;49.422;7.738;2022-07-29T12:14:29;72409.72;;;-145.25;32.74
54146;BME280;40052;49.422;7.738;2022-07-29T12:16:58;72465.78;;;-145.25;32.84
54146;BME280;40052;49.422;7.738;2022-07-29T12:19:26;72531.88;;;-145.25;32.95
54146;BME280;40052;49.422;7.738;2022-07-29T12:21:55;72545.91;;;-145.25;33.34
54146;BME280;40052;49.422;7.738;2022-07-29T12:24:23;72535.88;;;-145.25;33.13
54146;BME280;40052;49.422;7.738;2022-07-29T12:26:54;72515.84;;;-145.25;32.87
54146;BME280;40052;49.422;7.738;2022-07-29T12:29:19;72491.81;;;-145.25;32.63
54146;BME280;40052;49.422;7.738;2022-07-29T12:31:45;72503.84;;;-145.25;32.35
54146;BME280;40052;49.422;7.738;2022-07-29T12:34:17;72513.84;;;-145.25;32.68
54146;BME280;40052;49.422;7.738;2022-07-29T12:36:42;72531.88;;;-145.25;32.95
54146;BME280;40052;49.422;7.738;2022-07-29T12:39:08;72525.88;;;-145.25;32.58
54146;BME280;40052;49.422;7.738;2022-07-29T12:41:37;72539.91;;;-145.25;32.81
54146;BME280;40052;49.422;7.738;2022-07-29T12:44:02;72501.84;;;-145.25;32.70
54146;BME280;40052;49.422;7.738;2022-07-29T12:46:28;72545.91;;;-145.25;31.68
54146;BME280;40052;49.422;7.738;2022-07-29T12:48:54;72553.91;;;-145.25;31.69
54146;BME280;40052;49.422;7.738;2022-07-29T12:51:36;72551.91;;;-145.25;31.83
54146;BME280;40052;49.422;7.738;2022-07-29T12:54:11;72525.88;;;-145.25;32.18
54146;BME280;40052;49.422;7.738;2022-07-29T12:56:42;72519.88;;;-145.25;31.55
54146;BME280;40052;49.422;7.738;2022-07-29T12:59:16;72521.88;;;-145.25;31.89
54146;BME280;40052;49.422;7.738;2022-07-29T13:01:43;72513.84;;;-145.25;32.54
54146;BME280;40052;49.422;7.738;2022-07-29T13:04:08;72513.84;;;-145.25;32.77
54146;BME280;40052;49.422;7.738;2022-07-29T13:06:42;72517.88;;;-145.25;32.43
54146;BME280;40052;49.422;7.738;2022-07-29T13:11:38;72547.91;;;-145.25;32.58
54146;BME280;40052;49.422;7.738;2022-07-29T13:14:06;72547.91;;;-145.25;32.82
54146;BME280;40052;49.422;7.738;2022-07-29T13:16:32;72533.88;;;-145.25;32.73
54146;BME280;40052;49.422;7.738;2022-07-29T13:19:11;72501.84;;;-145.25;32.51
54146;BME280;40052;49.422;7.738;2022-07-29T13:21:38;72527.88;;;-145.25;32.22
54146;BME280;40052;49.422;7.738;2022-07-29T13:24:06;72527.88;;;-145.25;31.91
54146;BME280;40052;49.422;7.738;2022-07-29T13:26:31;72515.84;;;-145.25;32.65
54146;BME280;40052;49.422;7.738;2022-07-29T13:28:57;72541.91;;;-145.25;31.94
54146;BME280;40052;49.422;7.738;2022-07-29T13:31:23;72551.91;;;-145.25;32.27
54146;BME280;40052;49.422;7.738;2022-07-29T13:33:49;72553.91;;;-145.25;32.44